jeudi 13 février 2014

ALERTE SPOTTING 13/02/14

320 EI-DSA Alitalia (gris)
   dpt AZ357  07h30

320 F-HDMF Air Corsica (sticker cyclistes)
   XK4511/XK4532  08h30/09h25
 XK4533/XK4516  13h55/14h45
 XK4517/XK4514  20h00/21h05

772 F-GSPM Air France
  AF376Y/AF644 16h00/17h30

 Manque les prévisions/immats Air Europa / Flybe / AZ / TAP / BA / certains Air Algérie
*** Heures en Local Time / prévisions soumises
 à modifications de dernières minutes ***

le TAF de la journée



METAR: LFPO 130330Z 21009KT 9999 FEW043 BKN093 06/04 Q0999 NOSIG=

TAF LONG: LFPO 122300Z 1300/1406 20012KT 9999 SCT015 BECMG 1304/1306 -RA
BKN015 PROB40 TEMPO 1307/1312 2500 RA BKN010 SCT020TCU BECMG
1312/1313 25010KT SCT015 SCT030 TEMPO 1313/1318 -SHRA BKN012 SCT025CB
PROB30 TEMPO 1313/1315 25015G30KT 3000 -TSRA BKN020CB BECMG
1318/1321 CAVOK TEMPO 1403/1406 SCT006= 


 Les logs des jours précédents :
 http://www.airkalo.com/ORLYAVIATION/Logdumois.html